createdAt,value
2023-02-22T00:00:50.008Z,99.90
2023-02-22T00:03:25.234Z,99.90
2023-02-22T00:05:58.249Z,99.90
2023-02-22T00:08:30.610Z,99.90
2023-02-22T00:11:00.987Z,99.90
2023-02-22T00:13:30.439Z,99.90
2023-02-22T00:15:59.919Z,99.90
2023-02-22T00:18:31.142Z,99.90
2023-02-22T00:21:01.120Z,99.90
2023-02-22T00:23:31.799Z,99.90
2023-02-22T00:26:02.205Z,99.90
2023-02-22T00:28:31.074Z,99.90
2023-02-22T00:31:00.321Z,99.90
2023-02-22T00:33:28.657Z,99.90
2023-02-22T00:35:56.874Z,99.90
2023-02-22T00:38:25.974Z,99.90
2023-02-22T00:40:55.556Z,99.90
2023-02-22T00:43:27.265Z,99.90
2023-02-22T00:45:55.490Z,99.90
2023-02-22T00:48:26.492Z,99.90
2023-02-22T00:50:55.394Z,99.90
2023-02-22T00:53:26.317Z,99.90
2023-02-22T00:55:55.137Z,99.90
2023-02-22T00:58:24.353Z,99.90
2023-02-22T01:00:54.031Z,99.90
2023-02-22T01:03:22.315Z,99.90
2023-02-22T01:05:51.229Z,99.90
2023-02-22T01:08:20.063Z,99.90
2023-02-22T01:10:48.569Z,99.90
2023-02-22T01:13:19.894Z,99.90
2023-02-22T01:15:48.117Z,99.90
2023-02-22T01:18:18.198Z,99.90
2023-02-22T01:20:48.203Z,99.90
2023-02-22T01:23:18.503Z,99.90
2023-02-22T01:25:46.915Z,99.90
2023-02-22T01:28:16.081Z,99.90
2023-02-22T01:30:44.425Z,99.90
2023-02-22T01:33:13.832Z,99.90
2023-02-22T01:35:46.230Z,99.90
2023-02-22T01:38:15.217Z,99.90
2023-02-22T01:40:47.773Z,99.90
2023-02-22T01:43:21.855Z,99.90
2023-02-22T01:45:59.970Z,99.90
2023-02-22T01:48:34.310Z,99.90
2023-02-22T01:51:11.129Z,99.90
2023-02-22T01:53:44.258Z,99.90
2023-02-22T01:56:14.177Z,99.90
2023-02-22T01:58:45.540Z,99.90
2023-02-22T02:04:21.226Z,99.90
2023-02-22T02:06:50.841Z,99.90
2023-02-22T02:09:26.766Z,99.90
2023-02-22T02:11:55.458Z,99.90
2023-02-22T02:14:23.854Z,99.90
2023-02-22T02:16:54.409Z,99.90
2023-02-22T02:19:36.328Z,99.90
2023-02-22T02:22:38.397Z,99.90
2023-02-22T02:25:33.425Z,99.90
2023-02-22T02:28:37.688Z,99.90
2023-02-22T02:31:31.672Z,99.90
2023-02-22T02:34:06.405Z,99.90
2023-02-22T02:36:42.668Z,99.90
2023-02-22T02:39:20.574Z,99.90
2023-02-22T02:41:51.874Z,99.90
2023-02-22T02:44:27.368Z,99.90
2023-02-22T02:47:01.437Z,99.90
2023-02-22T02:49:37.424Z,99.90
2023-02-22T02:52:10.256Z,99.90
2023-02-22T02:54:40.293Z,99.90
2023-02-22T02:57:10.040Z,99.90
2023-02-22T02:59:39.328Z,99.90
2023-02-22T03:02:25.135Z,99.90
2023-02-22T03:05:15.145Z,99.90
2023-02-22T03:07:51.790Z,99.90
2023-02-22T03:10:37.801Z,99.90
2023-02-22T03:13:15.119Z,99.90
2023-02-22T03:15:52.446Z,99.90
2023-02-22T03:18:30.049Z,99.90
2023-02-22T03:21:10.308Z,99.90
2023-02-22T03:23:46.610Z,99.90
2023-02-22T03:26:19.453Z,99.90
2023-02-22T03:28:50.798Z,99.90
2023-02-22T03:31:26.128Z,99.90
2023-02-22T03:33:59.121Z,99.90
2023-02-22T03:36:33.174Z,99.90
2023-02-22T03:39:04.351Z,99.90
2023-02-22T03:41:38.806Z,99.90
2023-02-22T03:44:11.659Z,99.90
2023-02-22T03:46:41.996Z,99.90
2023-02-22T03:49:17.875Z,99.90
2023-02-22T03:51:48.434Z,99.90
2023-02-22T03:54:17.230Z,99.90
2023-02-22T03:56:53.902Z,99.90
2023-02-22T03:59:27.561Z,99.90
2023-02-22T04:01:57.471Z,99.90
2023-02-22T04:04:26.899Z,99.90
2023-02-22T04:06:56.767Z,99.90
2023-02-22T04:09:25.108Z,99.90
2023-02-22T04:11:53.326Z,99.90
2023-02-22T04:14:23.862Z,99.90
2023-02-22T04:16:52.326Z,99.90
2023-02-22T04:19:20.628Z,99.90
2023-02-22T04:21:50.866Z,99.90
2023-02-22T04:24:25.182Z,99.90
2023-02-22T04:26:55.453Z,99.90
2023-02-22T04:29:24.398Z,99.90
2023-02-22T04:31:52.650Z,99.90
2023-02-22T04:34:21.496Z,99.90
2023-02-22T04:36:50.175Z,99.90
2023-02-22T04:39:18.452Z,99.90
2023-02-22T04:41:48.188Z,99.90
2023-02-22T04:44:16.641Z,99.90
2023-02-22T04:46:46.819Z,99.90
2023-02-22T04:49:16.760Z,99.90
2023-02-22T04:51:46.325Z,99.90
2023-02-22T04:54:16.344Z,99.90
2023-02-22T04:56:48.454Z,99.90
2023-02-22T04:59:16.935Z,99.90
2023-02-22T05:01:47.896Z,99.90
2023-02-22T05:04:16.254Z,99.90
2023-02-22T05:06:44.558Z,99.90
2023-02-22T05:09:12.887Z,99.90
2023-02-22T05:11:41.179Z,99.90
2023-02-22T05:14:11.283Z,99.90
2023-02-22T05:16:39.650Z,99.90
2023-02-22T05:19:08.211Z,99.90
2023-02-22T05:21:36.390Z,99.90
2023-02-22T05:24:04.884Z,99.90
2023-02-22T05:26:33.207Z,99.90
2023-02-22T05:29:01.521Z,99.90
2023-02-22T05:31:31.272Z,99.90
2023-02-22T05:33:59.585Z,99.90
2023-02-22T05:36:28.076Z,99.90
2023-02-22T05:38:56.624Z,99.90
2023-02-22T05:41:24.813Z,99.90
2023-02-22T05:43:53.048Z,99.90
2023-02-22T05:46:21.566Z,99.90
2023-02-22T05:48:51.292Z,99.90
2023-02-22T05:51:20.465Z,99.90
2023-02-22T05:53:48.690Z,99.90
2023-02-22T05:56:22.209Z,99.90
2023-02-22T05:58:50.860Z,99.90
2023-02-22T06:01:19.714Z,99.90
2023-02-22T06:03:48.931Z,99.90
2023-02-22T06:06:22.092Z,99.90
2023-02-22T06:08:50.684Z,99.90
2023-02-22T06:11:19.785Z,99.90
2023-02-22T06:13:51.730Z,99.90
2023-02-22T06:16:21.051Z,99.90
2023-02-22T06:18:50.195Z,99.90
2023-02-22T06:21:19.839Z,99.90
2023-02-22T06:23:48.116Z,99.90
2023-02-22T06:26:17.742Z,99.90
2023-02-22T06:28:47.018Z,99.90
2023-02-22T06:31:15.948Z,99.90
2023-02-22T06:33:44.321Z,99.90
2023-02-22T06:36:12.611Z,99.90
2023-02-22T06:38:42.488Z,99.90
2023-02-22T06:41:10.800Z,99.90
2023-02-22T06:43:39.041Z,99.90
2023-02-22T06:46:11.442Z,99.90
2023-02-22T06:48:41.268Z,99.90
2023-02-22T06:51:10.548Z,99.90
2023-02-22T06:53:38.810Z,99.90
2023-02-22T06:56:08.712Z,99.90
2023-02-22T06:58:37.055Z,99.90
2023-02-22T07:01:07.815Z,99.90
2023-02-22T07:03:36.756Z,99.90
2023-02-22T07:06:06.084Z,99.90
2023-02-22T07:08:34.613Z,99.90
2023-02-22T07:11:02.856Z,99.90
2023-02-22T07:13:32.362Z,99.90
2023-02-22T07:16:00.816Z,99.90
2023-02-22T07:18:30.863Z,99.90
2023-02-22T07:20:59.667Z,99.90
2023-02-22T07:23:28.379Z,99.90
2023-02-22T07:25:56.738Z,99.90
2023-02-22T07:28:25.004Z,99.90
2023-02-22T07:30:54.645Z,99.90
2023-02-22T07:33:22.917Z,99.90
2023-02-22T07:35:52.577Z,99.90
2023-02-22T07:38:21.617Z,99.90
2023-02-22T07:40:50.099Z,99.90
2023-02-22T07:43:20.114Z,99.90
2023-02-22T07:45:49.541Z,99.90
2023-02-22T07:48:21.372Z,99.90
2023-02-22T07:50:49.717Z,99.90
2023-02-22T07:53:20.181Z,99.90
2023-02-22T07:55:51.005Z,99.90
2023-02-22T07:58:21.978Z,99.90
2023-02-22T08:00:50.386Z,99.90
2023-02-22T08:03:21.820Z,99.90
2023-02-22T08:05:52.148Z,99.90
2023-02-22T08:08:21.036Z,99.90
2023-02-22T08:10:50.169Z,99.90
2023-02-22T08:13:19.512Z,99.90
2023-02-22T08:15:48.433Z,99.90
2023-02-22T08:18:19.502Z,99.90
2023-02-22T08:20:50.412Z,99.90
2023-02-22T08:23:20.245Z,99.90
2023-02-22T08:25:48.487Z,99.90
2023-02-22T08:28:21.595Z,99.90
2023-02-22T08:30:50.214Z,99.90
2023-02-22T08:33:20.520Z,99.90
2023-02-22T08:35:50.482Z,99.90
2023-02-22T08:38:21.298Z,99.90
2023-02-22T08:40:50.858Z,99.90
2023-02-22T08:43:19.437Z,99.90
2023-02-22T08:45:48.741Z,99.90
2023-02-22T08:48:17.613Z,99.90
2023-02-22T08:50:47.662Z,99.90
2023-02-22T08:53:17.284Z,99.90
2023-02-22T08:55:46.475Z,99.90
2023-02-22T08:58:15.581Z,99.90
2023-02-22T09:00:45.873Z,99.90
2023-02-22T09:03:16.647Z,99.90
2023-02-22T09:05:46.949Z,99.90
2023-02-22T09:08:17.083Z,99.90
2023-02-22T09:10:46.009Z,99.90
2023-02-22T09:13:14.579Z,99.90
2023-02-22T09:15:44.015Z,99.90
2023-02-22T09:18:15.249Z,99.90
2023-02-22T09:20:43.529Z,99.90
2023-02-22T09:23:14.427Z,99.90
2023-02-22T09:25:42.714Z,99.90
2023-02-22T09:28:11.167Z,99.90
2023-02-22T09:30:39.700Z,99.90
2023-02-22T09:33:10.998Z,99.90
2023-02-22T09:35:42.453Z,99.90
2023-02-22T09:38:13.178Z,99.90
2023-02-22T09:40:46.423Z,99.90
2023-02-22T09:43:28.463Z,99.90
2023-02-22T09:46:14.004Z,99.90
2023-02-22T09:48:58.001Z,99.90
2023-02-22T09:51:30.066Z,99.90
2023-02-22T09:54:02.388Z,99.90
2023-02-22T09:56:33.881Z,99.90
2023-02-22T09:59:04.770Z,99.90
2023-02-22T10:01:36.593Z,99.90
2023-02-22T10:04:11.826Z,99.90
2023-02-22T10:06:45.260Z,99.90
2023-02-22T10:09:15.642Z,99.90
2023-02-22T10:11:53.706Z,99.90
2023-02-22T10:14:43.991Z,99.90
2023-02-22T10:17:22.664Z,99.90
2023-02-22T10:20:06.047Z,99.90
2023-02-22T10:22:44.388Z,99.90
2023-02-22T10:25:18.069Z,99.90
2023-02-22T10:27:49.918Z,99.90
2023-02-22T10:30:25.477Z,99.90
2023-02-22T10:33:00.545Z,99.90
2023-02-22T10:35:31.249Z,99.90
2023-02-22T10:38:05.494Z,99.90
2023-02-22T10:40:35.826Z,99.90
2023-02-22T10:43:06.251Z,99.90
2023-02-22T10:45:37.602Z,99.90
2023-02-22T10:48:11.673Z,99.90
2023-02-22T10:50:42.487Z,99.90
2023-02-22T10:53:11.767Z,99.90
2023-02-22T10:56:17.430Z,99.90
2023-02-22T10:58:49.983Z,99.90
2023-02-22T11:01:34.850Z,99.90
2023-02-22T11:04:10.657Z,99.90
2023-02-22T11:06:40.609Z,99.90
2023-02-22T11:09:13.567Z,99.90
2023-02-22T11:11:46.416Z,99.90
2023-02-22T11:14:25.427Z,99.90
2023-02-22T11:16:56.971Z,99.90
2023-02-22T11:19:27.525Z,99.90
2023-02-22T11:21:59.419Z,99.90
2023-02-22T11:24:37.367Z,99.90
2023-02-22T11:27:28.579Z,99.90
2023-02-22T11:30:00.335Z,98.50
2023-02-22T11:32:28.624Z,96.90
2023-02-22T11:35:21.441Z,95.90
2023-02-22T11:37:49.865Z,93.80
2023-02-22T11:40:22.224Z,93.00
2023-02-22T11:43:12.061Z,92.10
2023-02-22T11:45:53.020Z,91.10
2023-02-22T11:48:26.068Z,91.50
2023-02-22T11:51:05.489Z,91.80
2023-02-22T11:53:48.634Z,92.10
2023-02-22T11:56:35.740Z,92.50
2023-02-22T11:59:16.909Z,93.00
2023-02-22T12:01:52.423Z,93.10
2023-02-22T12:04:43.169Z,93.90
2023-02-22T12:07:31.759Z,94.70
2023-02-22T12:10:13.132Z,95.20
2023-02-22T12:12:52.505Z,95.50
2023-02-22T12:15:29.874Z,95.60
2023-02-22T12:18:06.402Z,96.00
2023-02-22T12:20:40.633Z,96.30
2023-02-22T12:23:20.506Z,96.40
2023-02-22T12:25:58.773Z,96.90
2023-02-22T12:28:36.120Z,96.90
2023-02-22T12:31:18.312Z,96.90
2023-02-22T12:33:55.128Z,96.90
2023-02-22T12:36:29.484Z,97.20
2023-02-22T12:39:07.570Z,97.40
2023-02-22T12:41:40.372Z,97.50
2023-02-22T12:44:17.334Z,97.60
2023-02-22T12:46:50.656Z,97.60
2023-02-22T12:49:25.015Z,97.60
2023-02-22T12:52:09.528Z,97.70
2023-02-22T12:54:52.501Z,97.80
2023-02-22T12:57:37.043Z,98.00
2023-02-22T13:00:07.756Z,97.90
2023-02-22T13:02:47.142Z,98.00
2023-02-22T13:05:17.978Z,98.10
2023-02-22T13:07:56.330Z,98.20
2023-02-22T13:10:46.131Z,97.60
2023-02-22T13:13:23.261Z,97.20
2023-02-22T13:15:57.429Z,96.70
2023-02-22T13:18:35.911Z,97.20
2023-02-22T13:21:09.664Z,97.10
2023-02-22T13:23:44.459Z,96.30
2023-02-22T13:26:19.691Z,95.90
2023-02-22T13:28:51.641Z,95.30
2023-02-22T13:31:43.841Z,95.00
2023-02-22T13:34:31.302Z,93.80
2023-02-22T13:37:20.843Z,93.30
2023-02-22T13:40:23.232Z,93.70
2023-02-22T13:43:15.870Z,93.40
2023-02-22T13:46:12.525Z,94.00
2023-02-22T13:49:33.319Z,94.60
2023-02-22T13:52:13.255Z,94.60
2023-02-22T13:54:46.633Z,93.80
2023-02-22T13:57:23.971Z,94.10
2023-02-22T14:00:21.439Z,94.00
2023-02-22T14:03:03.254Z,93.90
2023-02-22T14:05:49.737Z,94.00
2023-02-22T14:08:42.448Z,94.30
2023-02-22T14:11:54.297Z,94.90
2023-02-22T14:14:22.730Z,95.10
2023-02-22T14:17:30.859Z,95.00
2023-02-22T14:20:21.916Z,95.10
2023-02-22T14:22:53.195Z,95.30
2023-02-22T14:25:38.749Z,95.40
2023-02-22T14:28:09.453Z,95.10
2023-02-22T14:30:40.184Z,95.10
2023-02-22T14:33:41.200Z,95.20
2023-02-22T14:36:10.606Z,95.40
2023-02-22T14:38:39.234Z,95.40
2023-02-22T14:41:09.481Z,95.40
2023-02-22T14:43:38.518Z,95.30
2023-02-22T14:46:13.514Z,95.30
2023-02-22T14:48:43.717Z,95.60
2023-02-22T14:51:21.929Z,95.70
2023-02-22T14:53:55.016Z,95.90
2023-02-22T14:56:28.551Z,96.00
2023-02-22T14:59:08.024Z,96.00
2023-02-22T15:01:55.429Z,96.10
2023-02-22T15:04:28.683Z,96.00
2023-02-22T15:06:58.753Z,95.90
2023-02-22T15:09:31.189Z,96.00
2023-02-22T15:12:18.298Z,96.20
2023-02-22T15:14:49.756Z,96.20
2023-02-22T15:17:21.177Z,96.30
2023-02-22T15:19:50.398Z,96.40
2023-02-22T15:22:23.888Z,96.30
2023-02-22T15:25:00.375Z,96.60
2023-02-22T15:27:30.548Z,96.90
2023-02-22T15:30:04.483Z,97.10
2023-02-22T15:32:36.660Z,97.60
2023-02-22T15:35:16.645Z,97.70
2023-02-22T15:37:45.439Z,98.70
2023-02-22T15:40:17.156Z,98.20
2023-02-22T15:42:49.592Z,98.40
2023-02-22T15:45:21.110Z,98.60
2023-02-22T15:47:50.895Z,98.60
2023-02-22T15:50:23.794Z,98.80
2023-02-22T15:52:58.101Z,99.00
2023-02-22T15:55:29.520Z,99.20
2023-02-22T15:58:03.082Z,99.50
2023-02-22T16:00:37.122Z,99.80
2023-02-22T16:03:07.513Z,99.90
2023-02-22T16:05:40.816Z,99.90
2023-02-22T16:08:18.024Z,99.90
2023-02-22T16:10:54.489Z,99.90
2023-02-22T16:13:32.127Z,99.90
2023-02-22T16:16:04.033Z,99.90
2023-02-22T16:18:34.828Z,99.90
2023-02-22T16:21:06.513Z,99.90
2023-02-22T16:23:46.748Z,99.90
2023-02-22T16:26:26.666Z,99.90
2023-02-22T16:28:58.515Z,99.90
2023-02-22T16:31:29.404Z,99.90
2023-02-22T16:33:57.787Z,99.90
2023-02-22T16:36:39.107Z,99.90
2023-02-22T16:39:13.960Z,99.90
2023-02-22T16:41:42.728Z,99.90
2023-02-22T16:44:13.546Z,99.90
2023-02-22T16:46:42.917Z,99.90
2023-02-22T16:49:12.139Z,99.90
2023-02-22T16:51:45.118Z,99.90
2023-02-22T16:54:15.417Z,99.90
2023-02-22T16:56:43.817Z,99.90
2023-02-22T16:59:16.417Z,99.90
2023-02-22T17:01:45.275Z,99.90
2023-02-22T17:04:17.868Z,99.90
2023-02-22T17:06:48.852Z,99.90
2023-02-22T17:09:19.935Z,99.90
2023-02-22T17:11:50.327Z,99.90
2023-02-22T17:14:23.451Z,99.90
2023-02-22T17:16:52.698Z,99.90
2023-02-22T17:19:25.500Z,99.90
2023-02-22T17:21:54.158Z,99.90
2023-02-22T17:24:24.324Z,99.90
2023-02-22T17:26:54.097Z,99.90
2023-02-22T17:29:24.232Z,99.90
2023-02-22T17:31:53.991Z,99.90
2023-02-22T17:34:22.481Z,99.90
2023-02-22T17:36:50.868Z,99.90
2023-02-22T17:39:19.110Z,99.90
2023-02-22T17:41:49.545Z,99.90
2023-02-22T17:44:17.758Z,99.90
2023-02-22T17:46:47.809Z,99.90
2023-02-22T17:49:16.287Z,99.90
2023-02-22T17:51:49.392Z,99.90
2023-02-22T17:54:18.074Z,99.90
2023-02-22T17:56:46.600Z,99.90
2023-02-22T17:59:14.898Z,99.90
2023-02-22T18:01:44.184Z,99.90
2023-02-22T18:04:13.905Z,99.90
2023-02-22T18:06:42.156Z,99.90
2023-02-22T18:09:11.335Z,99.90
2023-02-22T18:11:40.776Z,99.90
2023-02-22T18:14:10.851Z,99.90
2023-02-22T18:16:39.520Z,99.90
2023-02-22T18:19:08.112Z,99.90
2023-02-22T18:21:38.791Z,99.90
2023-02-22T18:24:07.713Z,99.90
2023-02-22T18:26:38.869Z,99.90
2023-02-22T18:29:07.352Z,99.90
2023-02-22T18:31:35.600Z,99.90
2023-02-22T18:34:04.055Z,99.90
2023-02-22T18:36:32.517Z,99.90
2023-02-22T18:39:03.256Z,99.90
2023-02-22T18:41:31.526Z,99.90
2023-02-22T18:44:00.625Z,99.90
2023-02-22T18:46:30.082Z,99.90
2023-02-22T18:48:59.137Z,99.90
2023-02-22T18:51:29.579Z,99.90
2023-02-22T18:54:00.376Z,99.90
2023-02-22T18:56:31.172Z,99.90
2023-02-22T18:59:00.914Z,99.90
2023-02-22T19:01:31.486Z,99.90
2023-02-22T19:04:01.396Z,99.90
2023-02-22T19:06:29.648Z,99.90
2023-02-22T19:09:01.527Z,99.90
2023-02-22T19:11:31.238Z,99.90
2023-02-22T19:13:59.845Z,99.90
2023-02-22T19:16:28.509Z,99.90
2023-02-22T19:18:58.927Z,99.90
2023-02-22T19:21:29.815Z,99.90
2023-02-22T19:24:04.531Z,99.90
2023-02-22T19:26:34.481Z,99.90
2023-02-22T19:29:06.258Z,99.90
2023-02-22T19:31:35.095Z,99.90
2023-02-22T19:34:06.491Z,99.90
2023-02-22T19:36:35.168Z,99.90
2023-02-22T19:39:03.431Z,99.90
2023-02-22T19:41:33.578Z,99.90
2023-02-22T19:44:02.657Z,99.90
2023-02-22T19:46:31.329Z,99.90
2023-02-22T19:49:00.061Z,99.90
2023-02-22T19:51:30.584Z,99.90
2023-02-22T19:53:59.932Z,99.90
2023-02-22T19:56:29.051Z,99.90
2023-02-22T19:59:00.736Z,99.90
2023-02-22T20:01:31.864Z,99.90
2023-02-22T20:04:03.732Z,99.90
2023-02-22T20:06:35.071Z,99.90
2023-02-22T20:09:03.805Z,99.90
2023-02-22T20:11:32.040Z,99.90
2023-02-22T20:14:01.977Z,99.90
2023-02-22T20:16:30.585Z,99.90
2023-02-22T20:18:59.621Z,99.90
2023-02-22T20:21:31.150Z,99.90
2023-02-22T20:23:59.965Z,99.90
2023-02-22T20:26:31.156Z,99.90
2023-02-22T20:29:03.884Z,99.90
2023-02-22T20:31:33.472Z,99.90
2023-02-22T20:34:02.949Z,99.90
2023-02-22T20:36:31.743Z,99.90
2023-02-22T20:39:00.923Z,99.90
2023-02-22T20:41:30.960Z,99.90
2023-02-22T20:44:02.135Z,99.90
2023-02-22T20:46:32.393Z,99.90
2023-02-22T20:49:02.503Z,99.90
2023-02-22T20:51:31.387Z,99.90
2023-02-22T20:54:00.873Z,99.90
2023-02-22T20:56:30.807Z,99.90
2023-02-22T20:59:02.412Z,99.90
2023-02-22T21:01:32.096Z,99.90
2023-02-22T21:04:02.539Z,99.90
2023-02-22T21:06:31.518Z,99.90
2023-02-22T21:09:02.718Z,99.90
2023-02-22T21:11:32.317Z,99.90
2023-02-22T21:14:02.158Z,99.90
2023-02-22T21:16:32.319Z,99.90
2023-02-22T21:19:03.059Z,99.90
2023-02-22T21:21:31.946Z,99.90
2023-02-22T21:24:04.398Z,99.90
2023-02-22T21:26:34.909Z,99.90
2023-02-22T21:29:07.110Z,99.90
2023-02-22T21:31:37.974Z,99.90
2023-02-22T21:34:06.431Z,99.90
2023-02-22T21:36:34.631Z,99.90
2023-02-22T21:39:08.422Z,99.90
2023-02-22T21:41:39.213Z,99.90
2023-02-22T21:44:10.323Z,99.90
2023-02-22T21:46:38.691Z,99.90
2023-02-22T21:49:06.953Z,99.90
2023-02-22T21:51:37.704Z,99.90
2023-02-22T21:54:09.420Z,99.90
2023-02-22T21:56:40.640Z,99.90
2023-02-22T21:59:13.458Z,99.90
2023-02-22T22:01:47.157Z,99.90
2023-02-22T22:04:18.866Z,99.90
2023-02-22T22:06:49.081Z,99.90
2023-02-22T22:09:20.555Z,99.90
2023-02-22T22:11:50.697Z,99.90
2023-02-22T22:14:23.113Z,99.90
2023-02-22T22:16:53.297Z,99.90
2023-02-22T22:19:22.813Z,99.90
2023-02-22T22:21:53.453Z,99.90
2023-02-22T22:24:23.230Z,99.90
2023-02-22T22:26:54.628Z,99.90
2023-02-22T22:29:26.560Z,99.90
2023-02-22T22:31:54.953Z,99.90
2023-02-22T22:34:24.419Z,99.90
2023-02-22T22:36:52.881Z,99.90
2023-02-22T22:39:21.352Z,99.90
2023-02-22T22:41:49.870Z,99.90
2023-02-22T22:44:22.163Z,99.90
2023-02-22T22:46:53.709Z,99.90
2023-02-22T22:49:23.632Z,99.90
2023-02-22T22:51:52.640Z,99.90
2023-02-22T22:54:20.893Z,99.90
2023-02-22T22:56:49.083Z,99.90
2023-02-22T22:59:17.912Z,99.90
2023-02-22T23:01:46.179Z,99.90
2023-02-22T23:04:17.434Z,99.90
2023-02-22T23:06:47.534Z,99.90
2023-02-22T23:09:18.899Z,99.90
2023-02-22T23:11:51.613Z,99.90
2023-02-22T23:14:22.091Z,99.90
2023-02-22T23:16:52.515Z,99.90
2023-02-22T23:19:22.832Z,99.90
2023-02-22T23:21:51.740Z,99.90
2023-02-22T23:24:21.263Z,99.90
2023-02-22T23:26:49.790Z,99.90
2023-02-22T23:29:19.939Z,99.90
2023-02-22T23:31:48.976Z,99.90
2023-02-22T23:34:18.238Z,99.90
2023-02-22T23:36:48.507Z,99.90
2023-02-22T23:39:20.516Z,99.90
2023-02-22T23:41:51.718Z,99.90
2023-02-22T23:44:21.322Z,99.90
2023-02-22T23:46:55.096Z,99.90
2023-02-22T23:49:24.606Z,99.90
2023-02-22T23:51:54.459Z,99.90
2023-02-22T23:54:24.568Z,99.90
2023-02-22T23:56:57.035Z,99.90
2023-02-22T23:59:26.134Z,99.90
